Time;durP1;ratioP1;P1;durP2;ratioP2;P2;SDS_P1;SDS_P2;PMS_P1;PMS_P2;Temp;Humidity;BMP_temperature;BMP_pressure;BME280_temperature;BME280_humidity;BME280_pressure;Samples;Min_cycle;Max_cycle;Signal;HPM_P1;HPM_P2
2022/04/27 00:00:59;;;;;;;0.10;0.10;;;;;;;;;;5100927;28;20262;-71
2022/04/27 00:03:26;;;;;;;0.10;0.10;;;;;;;;;;5113842;28;20293;-71
2022/04/27 00:05:52;;;;;;;0.10;0.10;;;;;;;;;;5100464;28;20242;-71
2022/04/27 00:08:19;;;;;;;0.10;0.10;;;;;;;;;;5114042;28;20502;-74
2022/04/27 00:10:45;;;;;;;0.10;0.10;;;;;;;;;;5099381;28;20303;-72
2022/04/27 00:13:14;;;;;;;0.10;0.10;;;;;;;;;;5114558;28;20259;-72
2022/04/27 00:15:40;;;;;;;0.10;0.10;;;;;;;;;;5098836;28;20240;-72
2022/04/27 00:18:07;;;;;;;0.00;0.00;;;;;;;;;;5115222;28;20276;-73
2022/04/27 00:20:34;;;;;;;0.10;0.10;;;;;;;;;;5097845;28;20309;-71
2022/04/27 00:23:01;;;;;;;0.10;0.10;;;;;;;;;;5116257;28;20193;-71
2022/04/27 00:25:27;;;;;;;0.10;0.10;;;;;;;;;;5096829;28;20260;-72
2022/04/27 00:27:53;;;;;;;0.10;0.10;;;;;;;;;;5116920;28;20420;-72
2022/04/27 00:30:19;;;;;;;0.10;0.10;;;;;;;;;;5095805;28;20385;-72
2022/04/27 00:32:46;;;;;;;0.10;0.10;;;;;;;;;;5117857;28;20360;-71
2022/04/27 00:35:12;;;;;;;0.00;0.00;;;;;;;;;;5094388;28;20228;-73
2022/04/27 00:37:39;;;;;;;0.10;0.10;;;;;;;;;;5118630;28;20196;-71
2022/04/27 00:40:06;;;;;;;0.10;0.10;;;;;;;;;;5093460;28;20278;-73
2022/04/27 00:42:32;;;;;;;0.10;0.10;;;;;;;;;;5119493;28;20206;-72
2022/04/27 00:44:59;;;;;;;0.10;0.10;;;;;;;;;;5103758;28;20216;-72
2022/04/27 00:47:26;;;;;;;0.10;0.10;;;;;;;;;;5109042;28;20267;-72
2022/04/27 00:49:53;;;;;;;0.10;0.10;;;;;;;;;;5103754;28;20226;-72
2022/04/27 00:52:20;;;;;;;0.10;0.10;;;;;;;;;;5108905;28;20244;-73
2022/04/27 00:54:49;;;;;;;0.10;0.10;;;;;;;;;;5103551;28;20227;-71
2022/04/27 00:57:15;;;;;;;0.10;0.10;;;;;;;;;;5108992;28;20274;-71
2022/04/27 00:59:42;;;;;;;0.13;0.13;;;;;;;;;;5103412;28;20203;-72
2022/04/27 01:02:08;;;;;;;0.10;0.10;;;;;;;;;;5108678;28;20260;-72
2022/04/27 01:04:35;;;;;;;0.10;0.10;;;;;;;;;;5103564;28;20200;-72
2022/04/27 01:07:02;;;;;;;0.10;0.10;;;;;;;;;;5108317;28;20267;-72
2022/04/27 01:09:29;;;;;;;0.10;0.10;;;;;;;;;;5103314;28;20209;-72
2022/04/27 01:11:56;;;;;;;0.10;0.10;;;;;;;;;;5107002;28;20562;-71
2022/04/27 01:14:23;;;;;;;0.00;0.00;;;;;;;;;;5104437;28;20271;-71
2022/04/27 01:16:52;;;;;;;0.10;0.10;;;;;;;;;;5106412;28;20307;-71
2022/04/27 01:19:19;;;;;;;0.10;0.10;;;;;;;;;;5104541;28;20210;-72
2022/04/27 01:21:47;;;;;;;0.10;0.10;;;;;;;;;;5105728;28;20233;-71
2022/04/27 01:24:15;;;;;;;0.10;0.10;;;;;;;;;;5105557;28;20210;-71
2022/04/27 01:26:41;;;;;;;0.10;0.10;;;;;;;;;;5105286;28;20243;-72
2022/04/27 01:29:08;;;;;;;0.10;0.10;;;;;;;;;;5105802;28;20202;-72
2022/04/27 01:31:34;;;;;;;0.10;0.10;;;;;;;;;;5104389;28;20541;-71
2022/04/27 01:34:00;;;;;;;0.10;0.10;;;;;;;;;;5107091;28;20275;-72
2022/04/27 01:36:26;;;;;;;0.10;0.10;;;;;;;;;;5103067;28;20249;-72
2022/04/27 01:38:55;;;;;;;0.10;0.10;;;;;;;;;;5108024;28;20205;-71
2022/04/27 01:41:22;;;;;;;0.10;0.10;;;;;;;;;;5102495;28;20249;-72
2022/04/27 01:43:48;;;;;;;0.10;0.10;;;;;;;;;;5108598;28;20240;-71
2022/04/27 01:46:14;;;;;;;0.10;0.10;;;;;;;;;;5101578;28;20291;-72
2022/04/27 01:48:40;;;;;;;0.10;0.10;;;;;;;;;;5109633;28;20204;-71
2022/04/27 01:51:06;;;;;;;0.10;0.10;;;;;;;;;;5100451;28;20245;-72
2022/04/27 01:56:18;;;;;;;0.10;0.10;;;;;;;;;;5101862;28;20240;-72
2022/04/27 01:58:45;;;;;;;0.10;0.10;;;;;;;;;;5108745;28;20327;-73
2022/04/27 02:01:12;;;;;;;0.10;0.10;;;;;;;;;;5101121;28;20486;-73
2022/04/27 02:03:38;;;;;;;0.10;0.10;;;;;;;;;;5109556;28;20237;-72
2022/04/27 02:06:05;;;;;;;0.10;0.10;;;;;;;;;;5100331;28;20268;-72
2022/04/27 02:08:31;;;;;;;0.10;0.10;;;;;;;;;;5110412;28;20448;-71
2022/04/27 02:10:57;;;;;;;0.10;0.10;;;;;;;;;;5099184;28;20244;-70
2022/04/27 02:13:27;;;;;;;0.10;0.10;;;;;;;;;;5111573;28;20201;-72
2022/04/27 02:15:53;;;;;;;0.10;0.10;;;;;;;;;;5098614;28;20238;-71
2022/04/27 02:18:19;;;;;;;0.10;0.10;;;;;;;;;;5111930;28;20207;-71
2022/04/27 02:20:46;;;;;;;0.10;0.10;;;;;;;;;;5097733;28;20252;-71
2022/04/27 02:23:12;;;;;;;0.10;0.10;;;;;;;;;;5115045;28;20401;-72
2022/04/27 02:25:38;;;;;;;0.10;0.10;;;;;;;;;;5100659;28;20557;-72
2022/04/27 02:28:05;;;;;;;0.10;0.10;;;;;;;;;;5117543;28;20215;-72
2022/04/27 02:30:33;;;;;;;0.10;0.10;;;;;;;;;;5099858;28;20262;-72
2022/04/27 02:32:59;;;;;;;0.10;0.10;;;;;;;;;;5118205;28;20212;-73
2022/04/27 02:35:25;;;;;;;0.10;0.10;;;;;;;;;;5098523;28;20246;-71
2022/04/27 02:37:52;;;;;;;0.10;0.10;;;;;;;;;;5119299;28;20252;-71
2022/04/27 02:40:18;;;;;;;0.10;0.10;;;;;;;;;;5097282;28;20242;-72
2022/04/27 02:42:44;;;;;;;0.10;0.10;;;;;;;;;;5120389;28;20191;-72
2022/04/27 02:45:10;;;;;;;0.10;0.10;;;;;;;;;;5096627;28;20363;-72
2022/04/27 02:47:38;;;;;;;0.10;0.10;;;;;;;;;;5121200;28;20485;-72
2022/04/27 02:52:49;;;;;;;0.10;0.10;;;;;;;;;;5105929;28;20434;-72
2022/04/27 02:55:15;;;;;;;0.10;0.10;;;;;;;;;;5096851;28;20318;-72
2022/04/27 02:57:41;;;;;;;0.10;0.10;;;;;;;;;;5120518;28;20414;-72
2022/04/27 03:00:08;;;;;;;0.10;0.10;;;;;;;;;;5095769;28;20207;-72
2022/04/27 03:02:34;;;;;;;0.10;0.10;;;;;;;;;;5120924;28;20202;-71
2022/04/27 03:05:02;;;;;;;0.10;0.10;;;;;;;;;;5105728;28;20212;-72
2022/04/27 03:07:29;;;;;;;0.10;0.10;;;;;;;;;;5111057;28;20249;-71
2022/04/27 03:09:55;;;;;;;0.10;0.10;;;;;;;;;;5105905;28;20239;-72
2022/04/27 03:12:21;;;;;;;0.10;0.10;;;;;;;;;;5110908;28;20265;-72
2022/04/27 03:14:48;;;;;;;0.10;0.10;;;;;;;;;;5105583;28;20225;-72
2022/04/27 03:17:14;;;;;;;0.10;0.10;;;;;;;;;;5111064;28;20246;-71
2022/04/27 03:19:40;;;;;;;0.10;0.10;;;;;;;;;;5105569;28;20255;-72
2022/04/27 03:22:08;;;;;;;0.10;0.10;;;;;;;;;;5110764;28;20241;-72
2022/04/27 03:24:35;;;;;;;0.10;0.10;;;;;;;;;;5105514;28;20494;-73
2022/04/27 03:27:01;;;;;;;0.10;0.10;;;;;;;;;;5110023;28;20590;-72
2022/04/27 03:29:27;;;;;;;0.10;0.10;;;;;;;;;;5105709;28;20243;-72
2022/04/27 03:31:54;;;;;;;0.10;0.10;;;;;;;;;;5109026;28;20287;-72
2022/04/27 03:34:20;;;;;;;0.10;0.10;;;;;;;;;;5106247;28;20281;-72
2022/04/27 03:36:46;;;;;;;0.10;0.10;;;;;;;;;;5108168;28;20260;-72
2022/04/27 03:39:14;;;;;;;0.10;0.10;;;;;;;;;;5107448;28;20533;-71
2022/04/27 03:41:40;;;;;;;0.10;0.10;;;;;;;;;;5107188;28;20244;-72
2022/04/27 03:44:06;;;;;;;0.10;0.10;;;;;;;;;;5108364;28;20276;-73
2022/04/27 03:46:33;;;;;;;0.10;0.10;;;;;;;;;;5106292;28;20616;-71
2022/04/27 03:48:59;;;;;;;0.10;0.10;;;;;;;;;;5109167;28;20209;-71
2022/04/27 03:51:25;;;;;;;0.10;0.10;;;;;;;;;;5104809;28;20238;-72
2022/04/27 03:53:52;;;;;;;0.10;0.10;;;;;;;;;;5109695;28;20201;-72
2022/04/27 03:56:19;;;;;;;0.10;0.10;;;;;;;;;;5103094;28;20234;-71
2022/04/27 03:58:45;;;;;;;0.10;0.10;;;;;;;;;;5111371;28;20308;-71
2022/04/27 04:01:12;;;;;;;0.10;0.10;;;;;;;;;;5101625;28;20234;-72
2022/04/27 04:03:38;;;;;;;0.10;0.10;;;;;;;;;;5112911;28;20274;-72
2022/04/27 04:06:05;;;;;;;0.10;0.10;;;;;;;;;;5102081;28;20236;-72
2022/04/27 04:08:33;;;;;;;0.10;0.10;;;;;;;;;;5112078;28;20210;-74
2022/04/27 04:10:59;;;;;;;0.10;0.10;;;;;;;;;;5101416;28;20381;-73
2022/04/27 04:13:27;;;;;;;0.20;0.20;;;;;;;;;;5112694;28;20220;-71
2022/04/27 04:15:53;;;;;;;0.10;0.10;;;;;;;;;;5100512;28;20480;-71
2022/04/27 04:18:19;;;;;;;0.10;0.10;;;;;;;;;;5113606;28;20211;-72
2022/04/27 04:20:46;;;;;;;0.10;0.10;;;;;;;;;;5099544;28;20317;-73
2022/04/27 04:23:13;;;;;;;0.10;0.10;;;;;;;;;;5114786;28;20232;-72
2022/04/27 04:28:32;;;;;;;0.10;0.10;;;;;;;;;;5103159;28;20519;-72
2022/04/27 04:31:00;;;;;;;0.10;0.10;;;;;;;;;;5100490;28;20459;-72
2022/04/27 04:33:26;;;;;;;0.10;0.10;;;;;;;;;;5112887;28;20411;-71
2022/04/27 04:35:53;;;;;;;0.10;0.10;;;;;;;;;;5100011;28;20244;-72
2022/04/27 04:38:19;;;;;;;0.10;0.10;;;;;;;;;;5113434;28;20207;-71
2022/04/27 04:40:45;;;;;;;0.10;0.10;;;;;;;;;;5098572;28;20249;-72
2022/04/27 04:43:12;;;;;;;0.10;0.10;;;;;;;;;;5113995;28;20213;-72
2022/04/27 04:45:38;;;;;;;0.10;0.10;;;;;;;;;;5097256;28;20338;-72
2022/04/27 04:48:08;;;;;;;0.40;0.40;;;;;;;;;;5114756;28;20204;-72
2022/04/27 04:50:34;;;;;;;0.10;0.10;;;;;;;;;;5097468;28;20580;-72
2022/04/27 04:53:00;;;;;;;0.10;0.10;;;;;;;;;;5115428;28;20206;-72
2022/04/27 04:55:27;;;;;;;0.10;0.10;;;;;;;;;;5096030;28;20361;-71
2022/04/27 04:57:53;;;;;;;0.10;0.10;;;;;;;;;;5116077;28;20210;-72
2022/04/27 05:00:19;;;;;;;0.10;0.10;;;;;;;;;;5095364;28;20244;-71
2022/04/27 05:02:46;;;;;;;0.10;0.10;;;;;;;;;;5117029;28;20252;-72
2022/04/27 05:05:13;;;;;;;0.10;0.10;;;;;;;;;;5094085;28;20199;-71
2022/04/27 05:07:39;;;;;;;0.10;0.10;;;;;;;;;;5118327;28;20236;-72
2022/04/27 05:10:07;;;;;;;0.10;0.10;;;;;;;;;;5093676;28;20207;-72
2022/04/27 05:12:35;;;;;;;0.10;0.10;;;;;;;;;;5118660;28;20248;-72
2022/04/27 05:15:01;;;;;;;0.10;0.10;;;;;;;;;;5103383;28;20278;-71
2022/04/27 05:17:27;;;;;;;0.10;0.10;;;;;;;;;;5108634;28;20238;-71
2022/04/27 05:19:54;;;;;;;0.10;0.10;;;;;;;;;;5103328;28;20211;-71
2022/04/27 05:22:22;;;;;;;0.10;0.10;;;;;;;;;;5108466;28;20656;-71
2022/04/27 05:24:48;;;;;;;0.10;0.10;;;;;;;;;;5103169;28;20391;-72
2022/04/27 05:27:14;;;;;;;0.10;0.10;;;;;;;;;;5108298;28;20294;-71
2022/04/27 05:32:25;;;;;;;0.10;0.10;;;;;;;;;;5108349;28;20290;-72
2022/04/27 05:34:52;;;;;;;0.10;0.10;;;;;;;;;;5102845;28;20402;-72
2022/04/27 05:37:20;;;;;;;0.10;0.10;;;;;;;;;;5108204;28;20287;-73
2022/04/27 05:39:47;;;;;;;0.10;0.10;;;;;;;;;;5102902;28;20256;-72
2022/04/27 05:42:14;;;;;;;0.10;0.10;;;;;;;;;;5108229;28;20497;-73
2022/04/27 05:44:40;;;;;;;0.10;0.10;;;;;;;;;;5102998;28;20203;-72
2022/04/27 05:47:06;;;;;;;0.10;0.10;;;;;;;;;;5108060;28;20564;-72
2022/04/27 05:49:32;;;;;;;0.10;0.10;;;;;;;;;;5102946;28;20279;-73
2022/04/27 05:51:59;;;;;;;0.10;0.10;;;;;;;;;;5107333;28;20234;-72
2022/04/27 05:54:25;;;;;;;0.10;0.10;;;;;;;;;;5103486;28;20206;-71
2022/04/27 05:56:53;;;;;;;0.10;0.10;;;;;;;;;;5108129;28;20242;-71
2022/04/27 05:59:19;;;;;;;0.10;0.10;;;;;;;;;;5108764;28;20206;-72
2022/04/27 06:01:45;;;;;;;0.10;0.10;;;;;;;;;;5109093;28;20252;-72
2022/04/27 06:04:12;;;;;;;0.10;0.10;;;;;;;;;;5109871;28;20206;-71
2022/04/27 06:06:38;;;;;;;0.10;0.10;;;;;;;;;;5108558;28;20282;-71
2022/04/27 06:09:04;;;;;;;0.13;0.13;;;;;;;;;;5110153;28;20218;-71
2022/04/27 06:11:30;;;;;;;0.10;0.10;;;;;;;;;;5107473;28;20280;-71
2022/04/27 06:13:58;;;;;;;0.10;0.10;;;;;;;;;;5111281;28;20210;-71
2022/04/27 06:16:24;;;;;;;0.10;0.10;;;;;;;;;;5106632;28;20237;-71
2022/04/27 06:18:53;;;;;;;0.10;0.10;;;;;;;;;;5111853;28;20288;-72
2022/04/27 06:21:19;;;;;;;0.10;0.10;;;;;;;;;;5105930;28;20260;-73
2022/04/27 06:23:45;;;;;;;0.10;0.10;;;;;;;;;;5112570;28;20210;-73
2022/04/27 06:26:13;;;;;;;0.10;0.10;;;;;;;;;;5104822;28;20592;-71
2022/04/27 06:28:40;;;;;;;0.10;0.10;;;;;;;;;;5113384;28;20240;-72
2022/04/27 06:31:07;;;;;;;0.10;0.10;;;;;;;;;;5103744;28;20286;-74
2022/04/27 06:33:34;;;;;;;0.10;0.10;;;;;;;;;;5114422;28;20518;-72
2022/04/27 06:36:00;;;;;;;0.10;0.10;;;;;;;;;;5103040;28;20264;-72
2022/04/27 06:38:26;;;;;;;0.10;0.10;;;;;;;;;;5114513;28;20210;-72
2022/04/27 06:40:52;;;;;;;0.10;0.10;;;;;;;;;;5101522;28;20584;-74
2022/04/27 06:43:19;;;;;;;0.10;0.10;;;;;;;;;;5115335;28;20204;-73
2022/04/27 06:45:45;;;;;;;0.10;0.10;;;;;;;;;;5100947;28;20416;-73
2022/04/27 06:48:13;;;;;;;0.10;0.10;;;;;;;;;;5116702;28;20203;-72
2022/04/27 06:50:39;;;;;;;0.10;0.10;;;;;;;;;;5099748;28;20540;-73
2022/04/27 06:53:05;;;;;;;0.10;0.10;;;;;;;;;;5116985;28;20207;-72
2022/04/27 06:55:33;;;;;;;0.10;0.10;;;;;;;;;;5099191;28;20229;-73
2022/04/27 06:57:59;;;;;;;0.10;0.10;;;;;;;;;;5118035;28;20265;-73
2022/04/27 07:00:26;;;;;;;0.10;0.10;;;;;;;;;;5098748;28;20248;-77
2022/04/27 07:02:52;;;;;;;0.10;0.10;;;;;;;;;;5120173;28;20202;-77
2022/04/27 07:05:21;;;;;;;0.10;0.10;;;;;;;;;;5098581;28;20209;-76
2022/04/27 07:07:48;;;;;;;0.10;0.10;;;;;;;;;;5118957;28;20262;-77
2022/04/27 07:10:15;;;;;;;0.10;0.10;;;;;;;;;;5096055;28;20209;-76
2022/04/27 07:12:42;;;;;;;0.10;0.10;;;;;;;;;;5121181;28;20212;-77
2022/04/27 07:15:09;;;;;;;0.10;0.10;;;;;;;;;;5096091;28;20235;-78
2022/04/27 07:17:36;;;;;;;0.10;0.10;;;;;;;;;;5121200;28;20471;-78
2022/04/27 07:20:03;;;;;;;0.10;0.10;;;;;;;;;;5105652;28;20217;-78
2022/04/27 07:22:31;;;;;;;0.10;0.10;;;;;;;;;;5111224;28;20420;-76
2022/04/27 07:24:57;;;;;;;0.10;0.10;;;;;;;;;;5105839;28;20210;-78
2022/04/27 07:27:23;;;;;;;0.10;0.10;;;;;;;;;;5111052;28;20632;-77
2022/04/27 07:29:51;;;;;;;0.10;0.10;;;;;;;;;;5106277;28;20305;-76
2022/04/27 07:32:17;;;;;;;0.10;0.10;;;;;;;;;;5110939;28;20862;-77
2022/04/27 07:34:44;;;;;;;0.10;0.10;;;;;;;;;;5105869;28;20485;-78
2022/04/27 07:37:10;;;;;;;0.10;0.10;;;;;;;;;;5110616;28;20235;-78
2022/04/27 07:39:38;;;;;;;0.10;0.10;;;;;;;;;;5105138;28;20352;-77
2022/04/27 07:42:04;;;;;;;0.10;0.10;;;;;;;;;;5110390;28;20237;-79
2022/04/27 07:44:31;;;;;;;0.10;0.10;;;;;;;;;;5105175;28;20234;-77
2022/04/27 07:46:57;;;;;;;0.00;0.00;;;;;;;;;;5109396;28;20241;-76
2022/04/27 07:49:24;;;;;;;0.00;0.00;;;;;;;;;;5106130;28;20205;-78
2022/04/27 07:51:51;;;;;;;0.10;0.10;;;;;;;;;;5108182;28;20242;-77
2022/04/27 07:54:17;;;;;;;0.10;0.10;;;;;;;;;;5106782;28;20557;-77
2022/04/27 07:56:46;;;;;;;0.10;0.10;;;;;;;;;;5108628;28;20237;-78
2022/04/27 07:59:13;;;;;;;0.10;0.10;;;;;;;;;;5107286;28;20248;-78
2022/04/27 08:01:39;;;;;;;0.00;0.00;;;;;;;;;;5107205;28;20239;-79
2022/04/27 08:04:05;;;;;;;0.10;0.10;;;;;;;;;;5108248;28;20272;-76
2022/04/27 08:06:32;;;;;;;0.10;0.10;;;;;;;;;;5106350;28;20511;-78
2022/04/27 08:08:58;;;;;;;0.10;0.10;;;;;;;;;;5109209;28;20204;-77
2022/04/27 08:11:25;;;;;;;0.10;0.10;;;;;;;;;;5105150;28;20565;-79
2022/04/27 08:13:52;;;;;;;0.10;0.10;;;;;;;;;;5110127;28;20235;-76
2022/04/27 08:16:19;;;;;;;0.03;0.03;;;;;;;;;;5103832;28;20242;-78
2022/04/27 08:18:46;;;;;;;0.10;0.10;;;;;;;;;;5110874;28;20196;-77
2022/04/27 08:21:15;;;;;;;0.10;0.10;;;;;;;;;;5102133;28;20561;-77
2022/04/27 08:23:42;;;;;;;0.10;0.10;;;;;;;;;;5111285;28;20210;-77
2022/04/27 08:26:10;;;;;;;0.10;0.10;;;;;;;;;;5102843;28;20502;-74
2022/04/27 08:28:37;;;;;;;0.10;0.10;;;;;;;;;;5112360;28;20372;-77
2022/04/27 08:31:10;;;;;;;0.10;0.10;;;;;;;;;;5101904;28;20246;-77
2022/04/27 08:33:36;;;;;;;0.00;0.00;;;;;;;;;;5112105;28;20245;-78
2022/04/27 08:36:03;;;;;;;0.10;0.10;;;;;;;;;;5101675;28;20235;-77
2022/04/27 08:38:30;;;;;;;0.10;0.10;;;;;;;;;;5112795;28;20763;-77
2022/04/27 08:40:57;;;;;;;0.10;0.10;;;;;;;;;;5100119;28;20238;-77
2022/04/27 08:43:26;;;;;;;0.10;0.10;;;;;;;;;;5113067;28;20391;-77
2022/04/27 08:45:52;;;;;;;0.10;0.10;;;;;;;;;;5100038;28;20234;-76
2022/04/27 08:48:21;;;;;;;0.10;0.10;;;;;;;;;;5114274;28;20242;-76
2022/04/27 08:50:49;;;;;;;0.10;0.10;;;;;;;;;;5099760;28;20451;-77
2022/04/27 08:53:15;;;;;;;0.10;0.10;;;;;;;;;;5114122;28;20245;-78
2022/04/27 08:55:42;;;;;;;0.10;0.10;;;;;;;;;;5098873;28;20497;-79
2022/04/27 08:58:11;;;;;;;0.10;0.10;;;;;;;;;;5114846;28;20550;-77
2022/04/27 09:00:52;;;;;;;0.00;0.00;;;;;;;;;;5084641;28;20248;-77
2022/04/27 09:03:24;;;;;;;0.10;0.10;;;;;;;;;;5061695;28;20217;-78
2022/04/27 09:05:51;;;;;;;0.07;0.07;;;;;;;;;;5047720;28;20559;-80
2022/04/27 09:08:18;;;;;;;0.10;0.10;;;;;;;;;;5061650;28;20460;-78
2022/04/27 09:10:45;;;;;;;0.10;0.10;;;;;;;;;;5051160;28;20429;-79
2022/04/27 09:13:11;;;;;;;0.10;0.10;;;;;;;;;;5061591;28;20283;-78
2022/04/27 09:15:37;;;;;;;0.00;0.00;;;;;;;;;;5050879;28;20246;-80
2022/04/27 09:20:59;;;;;;;0.10;0.10;;;;;;;;;;5051373;28;20250;-76
2022/04/27 09:23:28;;;;;;;0.10;0.10;;;;;;;;;;5061241;28;20270;-78
2022/04/27 09:25:55;;;;;;;0.10;0.10;;;;;;;;;;5050471;28;20250;-78
2022/04/27 09:28:26;;;;;;;0.10;0.10;;;;;;;;;;5102633;28;20508;-78
2022/04/27 09:30:53;;;;;;;0.10;0.10;;;;;;;;;;5099058;28;20660;-78
2022/04/27 09:33:30;;;;;;;0.10;0.10;;;;;;;;;;5113136;28;20204;-81
2022/04/27 09:35:57;;;;;;;0.00;0.00;;;;;;;;;;5099501;28;20248;-80
2022/04/27 09:38:24;;;;;;;0.10;0.10;;;;;;;;;;5112477;28;20509;-78
2022/04/27 09:40:52;;;;;;;0.07;0.07;;;;;;;;;;5099017;28;20247;-77
2022/04/27 09:43:39;;;;;;;0.10;0.10;;;;;;;;;;5102498;28;20200;-79
2022/04/27 09:46:14;;;;;;;0.03;0.03;;;;;;;;;;5101217;28;20479;-80
2022/04/27 09:48:40;;;;;;;0.00;0.00;;;;;;;;;;5110625;28;20215;-80
2022/04/27 09:51:12;;;;;;;0.05;0.05;;;;;;;;;;5100258;28;20297;-77
2022/04/27 09:53:40;;;;;;;0.00;0.00;;;;;;;;;;5110670;28;20206;-77
2022/04/27 09:56:07;;;;;;;0.10;0.10;;;;;;;;;;5100904;28;20235;-76
2022/04/27 09:58:34;;;;;;;0.10;0.10;;;;;;;;;;5111882;28;20204;-79
2022/04/27 10:01:04;;;;;;;0.10;0.10;;;;;;;;;;5099543;28;20436;-78
2022/04/27 10:03:34;;;;;;;0.10;0.10;;;;;;;;;;5111462;28;20224;-77
2022/04/27 10:06:00;;;;;;;0.10;0.10;;;;;;;;;;5100365;28;20308;-77
2022/04/27 10:08:28;;;;;;;0.05;0.05;;;;;;;;;;5112129;28;20209;-78
2022/04/27 10:10:55;;;;;;;0.00;0.00;;;;;;;;;;5099635;28;20260;-78
2022/04/27 10:13:21;;;;;;;0.08;0.08;;;;;;;;;;5113270;28;20224;-78
2022/04/27 10:15:49;;;;;;;0.00;0.00;;;;;;;;;;5098170;28;20234;-77
2022/04/27 10:18:16;;;;;;;0.00;0.00;;;;;;;;;;5113066;28;20293;-77
2022/04/27 10:20:43;;;;;;;0.10;0.10;;;;;;;;;;5097532;28;20264;-76
2022/04/27 10:23:24;;;;;;;0.10;0.10;;;;;;;;;;5113468;28;20206;-78
2022/04/27 10:26:11;;;;;;;0.00;0.00;;;;;;;;;;5098682;28;20243;-77
2022/04/27 10:28:38;;;;;;;0.00;0.00;;;;;;;;;;5110212;28;20234;-74
2022/04/27 10:31:08;;;;;;;0.08;0.08;;;;;;;;;;5100043;28;20284;-74
2022/04/27 10:33:41;;;;;;;0.05;0.05;;;;;;;;;;5110413;28;20256;-71
2022/04/27 10:36:20;;;;;;;0.00;0.00;;;;;;;;;;5100337;28;20332;-72
2022/04/27 10:39:15;;;;;;;0.00;0.00;;;;;;;;;;5108377;28;20260;-72
2022/04/27 10:41:43;;;;;;;0.10;0.10;;;;;;;;;;5104969;28;20593;-72
2022/04/27 10:44:10;;;;;;;0.00;0.00;;;;;;;;;;5108022;28;20210;-72
2022/04/27 10:46:36;;;;;;;0.10;0.10;;;;;;;;;;5108263;28;20236;-73
2022/04/27 10:49:22;;;;;;;0.00;0.00;;;;;;;;;;5110441;28;20230;-72
2022/04/27 10:52:01;;;;;;;0.00;0.00;;;;;;;;;;5109597;28;20299;-73
2022/04/27 10:54:28;;;;;;;0.00;0.00;;;;;;;;;;5106991;28;20209;-72
2022/04/27 10:56:56;;;;;;;0.00;0.00;;;;;;;;;;5110485;28;20244;-71
2022/04/27 10:59:41;;;;;;;0.00;0.00;;;;;;;;;;5107829;28;20207;-73
2022/04/27 11:02:27;;;;;;;0.10;0.10;;;;;;;;;;5111799;28;20474;-71
2022/04/27 11:04:54;;;;;;;0.00;0.00;;;;;;;;;;5106216;28;20207;-72
2022/04/27 11:07:39;;;;;;;0.00;0.00;;;;;;;;;;5111635;28;20236;-72
2022/04/27 11:10:14;;;;;;;0.10;0.10;;;;;;;;;;5097251;28;20214;-71
2022/04/27 11:12:43;;;;;;;0.10;0.10;;;;;;;;;;5106332;28;20194;-73
2022/04/27 11:15:11;;;;;;;0.03;0.03;;;;;;;;;;5096332;28;20216;-70
2022/04/27 11:17:38;;;;;;;0.00;0.00;;;;;;;;;;5121228;28;20218;-71
2022/04/27 11:20:05;;;;;;;0.00;0.00;;;;;;;;;;5106288;28;20410;-72
2022/04/27 11:22:39;;;;;;;0.00;0.00;;;;;;;;;;5094301;28;20223;-71
2022/04/27 11:25:07;;;;;;;0.10;0.10;;;;;;;;;;5106376;28;20204;-71
2022/04/27 11:27:34;;;;;;;0.10;0.10;;;;;;;;;;5094136;28;20222;-72
2022/04/27 11:30:03;;;;;;;0.00;0.00;;;;;;;;;;5105501;28;20240;-71
2022/04/27 11:32:29;;;;;;;0.00;0.00;;;;;;;;;;5111130;28;20259;-72
2022/04/27 11:34:56;;;;;;;0.00;0.00;;;;;;;;;;5105223;28;20205;-72
2022/04/27 11:37:22;;;;;;;0.00;0.00;;;;;;;;;;5110889;28;20235;-71
2022/04/27 11:39:49;;;;;;;0.10;0.10;;;;;;;;;;5105151;28;20259;-72
2022/04/27 11:42:16;;;;;;;0.10;0.10;;;;;;;;;;5110789;28;20317;-71
2022/04/27 11:44:43;;;;;;;0.00;0.00;;;;;;;;;;5105471;28;20367;-72
2022/04/27 11:47:24;;;;;;;0.00;0.00;;;;;;;;;;5110658;28;20240;-71
2022/04/27 11:49:55;;;;;;;0.10;0.10;;;;;;;;;;5101474;28;20516;-72
2022/04/27 11:52:21;;;;;;;0.03;0.03;;;;;;;;;;5110536;28;20262;-75
2022/04/27 11:54:48;;;;;;;0.05;0.05;;;;;;;;;;5104455;28;20211;-73
2022/04/27 11:57:21;;;;;;;0.10;0.10;;;;;;;;;;5110302;28;20239;-73
2022/04/27 11:59:48;;;;;;;0.10;0.10;;;;;;;;;;5104882;28;20258;-74
2022/04/27 12:02:14;;;;;;;0.08;0.08;;;;;;;;;;5110098;28;20250;-75
2022/04/27 12:04:42;;;;;;;0.00;0.00;;;;;;;;;;5104864;28;20527;-72
2022/04/27 12:07:13;;;;;;;0.10;0.10;;;;;;;;;;5110672;28;20245;-73
2022/04/27 12:09:40;;;;;;;0.00;0.00;;;;;;;;;;5105185;28;20231;-73
2022/04/27 12:12:07;;;;;;;0.00;0.00;;;;;;;;;;5110232;28;20322;-74
2022/04/27 12:14:33;;;;;;;0.03;0.03;;;;;;;;;;5104898;28;20210;-76
2022/04/27 12:17:00;;;;;;;0.10;0.10;;;;;;;;;;5109251;28;20666;-74
2022/04/27 12:19:28;;;;;;;0.00;0.00;;;;;;;;;;5105511;28;20203;-75
2022/04/27 12:22:09;;;;;;;0.00;0.00;;;;;;;;;;5108333;28;20245;-73
2022/04/27 12:24:43;;;;;;;0.00;0.00;;;;;;;;;;5104538;28;20268;-74
2022/04/27 12:27:19;;;;;;;0.00;0.00;;;;;;;;;;5110242;28;20245;-73
2022/04/27 12:29:46;;;;;;;0.00;0.00;;;;;;;;;;5104645;28;20315;-73
2022/04/27 12:32:12;;;;;;;0.10;0.10;;;;;;;;;;5109996;28;20261;-75
2022/04/27 12:37:32;;;;;;;0.03;0.03;;;;;;;;;;5109931;28;20430;-75
2022/04/27 12:40:14;;;;;;;0.10;0.10;;;;;;;;;;5104144;28;20236;-74
2022/04/27 12:42:55;;;;;;;0.05;0.05;;;;;;;;;;5104253;28;20194;-74
2022/04/27 12:45:21;;;;;;;0.08;0.08;;;;;;;;;;5096275;28;20495;-73
2022/04/27 12:47:50;;;;;;;0.05;0.05;;;;;;;;;;5118365;28;20266;-74
2022/04/27 12:50:18;;;;;;;0.00;0.00;;;;;;;;;;5095316;28;20210;-74
2022/04/27 12:52:45;;;;;;;0.10;0.10;;;;;;;;;;5118780;28;20203;-74
2022/04/27 12:55:14;;;;;;;0.10;0.10;;;;;;;;;;5094551;28;20213;-74
2022/04/27 12:57:44;;;;;;;0.10;0.10;;;;;;;;;;5118654;28;20238;-76
2022/04/27 13:00:11;;;;;;;0.10;0.10;;;;;;;;;;5094460;28;20209;-74
2022/04/27 13:02:38;;;;;;;0.03;0.03;;;;;;;;;;5119378;28;20275;-75
2022/04/27 13:05:05;;;;;;;0.03;0.03;;;;;;;;;;5104412;28;20206;-73
2022/04/27 13:07:31;;;;;;;0.10;0.10;;;;;;;;;;5091770;28;20207;-73
2022/04/27 13:12:43;;;;;;;0.00;0.00;;;;;;;;;;5104190;28;20230;-73
2022/04/27 13:15:10;;;;;;;0.00;0.00;;;;;;;;;;5094294;28;20276;-74
2022/04/27 13:17:37;;;;;;;0.05;0.05;;;;;;;;;;5119161;28;20230;-75
2022/04/27 13:20:04;;;;;;;0.00;0.00;;;;;;;;;;5103903;28;20209;-74
2022/04/27 13:22:30;;;;;;;0.00;0.00;;;;;;;;;;5109060;28;20531;-75
2022/04/27 13:24:57;;;;;;;0.10;0.10;;;;;;;;;;5104054;28;20203;-74
2022/04/27 13:27:24;;;;;;;0.00;0.00;;;;;;;;;;5109576;28;20564;-75
2022/04/27 13:29:52;;;;;;;0.00;0.00;;;;;;;;;;5103863;28;20237;-74
2022/04/27 13:32:18;;;;;;;0.00;0.00;;;;;;;;;;5109055;28;20252;-75
2022/04/27 13:34:44;;;;;;;0.00;0.00;;;;;;;;;;5104084;28;20449;-74
2022/04/27 13:37:11;;;;;;;0.10;0.10;;;;;;;;;;5109140;28;20233;-76
2022/04/27 13:39:37;;;;;;;0.10;0.10;;;;;;;;;;5103578;28;20257;-75
2022/04/27 13:42:05;;;;;;;0.10;0.10;;;;;;;;;;5109069;28;20250;-73
2022/04/27 13:44:32;;;;;;;0.07;0.07;;;;;;;;;;5103758;28;20209;-74
2022/04/27 13:46:59;;;;;;;0.00;0.00;;;;;;;;;;5107696;28;20307;-74
2022/04/27 13:49:25;;;;;;;0.10;0.10;;;;;;;;;;5104104;28;20201;-75
2022/04/27 13:51:52;;;;;;;0.10;0.10;;;;;;;;;;5107282;28;20241;-74
2022/04/27 13:54:19;;;;;;;0.10;0.10;;;;;;;;;;5104892;28;20212;-74
2022/04/27 13:56:45;;;;;;;0.10;0.10;;;;;;;;;;5106145;28;20279;-75
2022/04/27 13:59:11;;;;;;;0.10;0.10;;;;;;;;;;5105270;28;20291;-73
2022/04/27 14:01:38;;;;;;;0.10;0.10;;;;;;;;;;5105042;28;20598;-74
2022/04/27 14:04:06;;;;;;;0.10;0.10;;;;;;;;;;5106477;28;20216;-73
2022/04/27 14:06:32;;;;;;;0.10;0.10;;;;;;;;;;5104213;28;20288;-74
2022/04/27 14:08:59;;;;;;;0.00;0.00;;;;;;;;;;5107525;28;20207;-74
2022/04/27 14:14:09;;;;;;;0.10;0.10;;;;;;;;;;5105840;28;20190;-74
2022/04/27 14:19:21;;;;;;;0.10;0.10;;;;;;;;;;5108390;28;20239;-73
2022/04/27 14:21:48;;;;;;;0.00;0.00;;;;;;;;;;5109895;28;20251;-73
2022/04/27 14:24:14;;;;;;;0.10;0.10;;;;;;;;;;5109270;28;20487;-73
2022/04/27 14:26:40;;;;;;;0.00;0.00;;;;;;;;;;5108667;28;20252;-72
2022/04/27 14:29:07;;;;;;;0.10;0.10;;;;;;;;;;5110364;28;20204;-72
2022/04/27 14:31:33;;;;;;;0.00;0.00;;;;;;;;;;5107800;28;20310;-73
2022/04/27 14:33:59;;;;;;;0.03;0.03;;;;;;;;;;5110900;28;20246;-72
2022/04/27 14:36:27;;;;;;;0.00;0.00;;;;;;;;;;5106783;28;20298;-73
2022/04/27 14:38:54;;;;;;;0.00;0.00;;;;;;;;;;5111723;28;20225;-73
2022/04/27 14:41:21;;;;;;;0.07;0.07;;;;;;;;;;5105970;28;20240;-73
2022/04/27 14:43:48;;;;;;;0.10;0.10;;;;;;;;;;5112035;28;20243;-73
2022/04/27 14:46:15;;;;;;;0.10;0.10;;;;;;;;;;5105141;28;20551;-73
2022/04/27 14:48:42;;;;;;;0.10;0.10;;;;;;;;;;5113189;28;20383;-73
2022/04/27 14:51:09;;;;;;;0.00;0.00;;;;;;;;;;5104262;28;20251;-72
2022/04/27 14:53:36;;;;;;;0.10;0.10;;;;;;;;;;5113631;28;20500;-72
2022/04/27 14:56:03;;;;;;;0.00;0.00;;;;;;;;;;5103564;28;20240;-72
2022/04/27 14:58:29;;;;;;;0.00;0.00;;;;;;;;;;5114103;28;20247;-72
2022/04/27 15:00:57;;;;;;;0.10;0.10;;;;;;;;;;5102422;28;20438;-74
2022/04/27 15:03:24;;;;;;;0.07;0.07;;;;;;;;;;5115020;28;20431;-72
2022/04/27 15:05:50;;;;;;;0.10;0.10;;;;;;;;;;5101478;28;20275;-72
2022/04/27 15:08:16;;;;;;;0.10;0.10;;;;;;;;;;5116038;28;20201;-73
2022/04/27 15:10:45;;;;;;;0.07;0.07;;;;;;;;;;5100655;28;20237;-72